Time;durP1;ratioP1;P1;durP2;ratioP2;P2;SDS_P1;SDS_P2;PMS_P1;PMS_P2;Temp;Humidity;BMP_temperature;BMP_pressure;BME280_temperature;BME280_humidity;BME280_pressure;Samples;Min_cycle;Max_cycle;Signal;HPM_P1;HPM_P2
2022/01/27 00:00:43;;;;;;;;;;;1.30;99.90;;;0.34;100.00;102036.13;4988727;28;19938;-77
2022/01/27 00:03:26;;;;;;;;;;;3.50;99.90;;;0.32;100.00;102025.72;4988215;28;19926;-76
2022/01/27 00:06:01;;;;;;;;;;;1.20;99.90;;;0.27;100.00;102017.72;4972385;28;19938;-76
2022/01/27 00:08:32;;;;;;;;;;;1.00;99.90;;;0.27;100.00;102022.00;4980298;28;19930;-76
2022/01/27 00:11:02;;;;;;;;;;;1.10;99.90;;;0.21;100.00;102022.63;4992712;28;19933;-76
2022/01/27 00:13:42;;;;;;;;;;;1.10;99.90;;;0.25;100.00;102027.13;4991329;28;20434;-76
2022/01/27 00:16:15;;;;;;;;;;;1.20;99.90;;;0.23;100.00;102027.88;4993559;28;19995;-76
2022/01/27 00:18:45;;;;;;;;;;;1.10;99.90;;;0.25;100.00;102028.81;4992935;28;19937;-76
2022/01/27 00:21:13;;;;;;;;;;;1.00;99.90;;;0.22;100.00;102021.78;4991841;28;19929;-76
2022/01/27 00:23:45;;;;;;;;;;;1.10;99.90;;;0.24;100.00;102030.53;4989921;28;19945;-76
2022/01/27 00:26:13;;;;;;;;;;;1.10;99.90;;;0.27;100.00;102032.38;5007615;28;19930;-76
2022/01/27 00:28:41;;;;;;;;;;;2.60;99.90;;;0.20;100.00;102040.69;4975077;28;19937;-77
2022/01/27 00:31:26;;;;;;;;;;;1.30;99.90;;;0.24;100.00;102051.25;5002225;28;19971;-75
2022/01/27 00:33:54;;;;;;;;;;;1.00;99.90;;;0.19;100.00;102044.97;5007584;28;19952;-76
2022/01/27 00:36:21;;;;;;;;;;;1.30;99.90;;;0.19;100.00;102036.31;5009087;28;20388;-76
2022/01/27 00:38:49;;;;;;;;;;;1.00;99.90;;;0.18;100.00;102043.19;5010369;28;20375;-76
2022/01/27 00:41:19;;;;;;;;;;;1.30;99.90;;;0.17;100.00;102040.56;4992776;28;19926;-76
2022/01/27 00:43:51;;;;;;;;;;;0.90;99.90;;;0.18;100.00;102031.97;4991848;28;20000;-76
2022/01/27 00:46:19;;;;;;;;;;;2.40;99.90;;;0.19;100.00;102028.56;5011058;28;20311;-76
2022/01/27 00:48:47;;;;;;;;;;;1.20;99.90;;;0.20;100.00;102010.50;5012151;28;19925;-77
2022/01/27 00:51:21;;;;;;;;;;;0.80;99.90;;;0.20;100.00;102017.38;5011744;28;19925;-77
2022/01/27 00:54:18;;;;;;;;;;;3.20;99.90;;;0.16;100.00;102023.22;5009000;28;19933;-76
2022/01/27 01:01:44;;;;;;;;;;;1.00;99.90;;;0.12;100.00;102035.16;5010707;28;19979;-77
2022/01/27 01:04:12;;;;;;;;;;;1.20;99.90;;;0.11;100.00;102031.66;4993645;28;19939;-77
2022/01/27 01:06:43;;;;;;;;;;;1.10;99.90;;;0.18;100.00;102038.00;4994169;28;19937;-76
2022/01/27 01:17:27;;;;;;;;;;;1.00;99.90;;;0.11;100.00;102030.81;5010323;28;19979;-77
2022/01/27 01:33:13;;;;;;;;;;;3.30;99.90;;;0.06;100.00;102009.88;5009882;28;19929;-76
2022/01/27 01:36:05;;;;;;;;;;;0.90;99.90;;;0.00;100.00;102004.44;5010464;28;19993;-77
2022/01/27 01:38:32;;;;;;;;;;;1.10;99.90;;;0.01;100.00;102005.31;5009936;28;19937;-77
2022/01/27 01:40:59;;;;;;;;;;;0.90;99.90;;;0.03;100.00;101994.22;5010243;28;20024;-76
2022/01/27 01:43:26;;;;;;;;;;;1.00;99.90;;;0.01;100.00;101998.44;5008755;28;19929;-77
2022/01/27 01:45:53;;;;;;;;;;;0.90;99.90;;;0.03;100.00;102001.06;4993488;28;19930;-76
2022/01/27 01:48:20;;;;;;;;;;;2.10;99.90;;;0.05;100.00;101995.16;5011207;28;19930;-77
2022/01/27 01:50:47;;;;;;;;;;;1.00;99.90;;;-0.01;100.00;101994.88;5025497;28;19933;-75
2022/01/27 01:53:14;;;;;;;;;;;0.90;99.90;;;-0.03;100.00;101980.97;5008346;28;20528;-77
2022/01/27 01:55:42;;;;;;;;;;;0.90;99.90;;;-0.08;100.00;101985.97;4992250;28;19936;-76
2022/01/27 01:58:09;;;;;;;;;;;2.70;99.90;;;-0.04;100.00;101976.63;5010424;28;20541;-76
2022/01/27 02:00:39;;;;;;;;;;;-2.10;99.90;;;-0.03;100.00;101975.81;5009592;28;19930;-77
2022/01/27 02:03:06;;;;;;;;;;;0.80;99.90;;;-0.07;100.00;101987.75;5009127;28;20335;-76
2022/01/27 02:05:54;;;;;;;;;;;1.10;99.90;;;-0.10;100.00;101989.28;5011795;28;19945;-76
2022/01/27 02:19:14;;;;;;;;;;;1.00;99.90;;;-0.08;100.00;101998.91;5009319;28;20028;-76
2022/01/27 02:21:59;;;;;;;;;;;0.70;99.90;;;-0.07;100.00;101998.09;5009460;28;20016;-76
2022/01/27 02:24:30;;;;;;;;;;;0.70;99.90;;;-0.07;100.00;101990.31;5040206;28;19925;-77
2022/01/27 02:26:57;;;;;;;;;;;2.70;99.90;;;-0.22;100.00;101999.97;5010112;28;19936;-77
2022/01/27 02:29:25;;;;;;;;;;;0.80;99.90;;;-0.11;100.00;102003.03;5010030;28;19929;-77
2022/01/27 02:31:54;;;;;;;;;;;0.80;99.90;;;-0.15;100.00;101999.41;5010672;28;19936;-76
2022/01/27 02:34:22;;;;;;;;;;;1.00;99.90;;;-0.14;100.00;102003.78;5009880;28;19972;-77
2022/01/27 02:36:51;;;;;;;;;;;0.70;99.90;;;-0.09;100.00;102007.44;5026402;28;19926;-76
2022/01/27 02:39:19;;;;;;;;;;;0.80;99.90;;;-0.12;100.00;102012.50;5009782;28;19930;-77
2022/01/27 02:41:50;;;;;;;;;;;0.80;99.90;;;-0.12;100.00;102002.13;5026387;28;19933;-77
2022/01/27 02:44:46;;;;;;;;;;;1.30;99.90;;;-0.05;100.00;102006.81;5008495;28;19929;-76
2022/01/27 02:47:14;;;;;;;;;;;0.90;99.90;;;-0.02;100.00;102012.13;4983824;28;20298;-77
2022/01/27 02:49:42;;;;;;;;;;;3.30;99.90;;;-0.06;100.00;102007.63;5009921;28;19930;-77
2022/01/27 02:52:09;;;;;;;;;;;2.10;99.90;;;-0.02;100.00;101999.19;5026255;28;19936;-76
2022/01/27 02:54:36;;;;;;;;;;;1.10;99.90;;;-0.10;100.00;102000.50;5008182;28;20064;-76
2022/01/27 02:57:22;;;;;;;;;;;0.80;99.90;;;-0.09;100.00;102009.16;4993326;28;20023;-77
2022/01/27 02:59:48;;;;;;;;;;;2.60;99.90;;;-0.07;100.00;101995.50;5007321;28;20386;-77
2022/01/27 03:02:16;;;;;;;;;;;1.00;99.90;;;-0.11;100.00;101988.38;5006651;28;19972;-77
2022/01/27 03:04:43;;;;;;;;;;;0.90;99.90;;;-0.06;100.00;101986.91;5006595;28;19980;-76
2022/01/27 03:07:10;;;;;;;;;;;0.90;99.90;;;-0.02;100.00;101977.56;5007056;28;20374;-75
2022/01/27 03:09:38;;;;;;;;;;;1.00;99.90;;;-0.08;100.00;101969.53;4991063;28;19930;-76
2022/01/27 03:12:12;;;;;;;;;;;1.40;99.90;;;-0.04;100.00;101976.63;5008216;28;19926;-76
2022/01/27 03:14:41;;;;;;;;;;;0.80;99.90;;;-0.08;100.00;101965.25;5022661;28;19933;-77
2022/01/27 03:17:09;;;;;;;;;;;1.10;99.90;;;-0.06;100.00;101953.28;5007815;28;19935;-77
2022/01/27 03:19:37;;;;;;;;;;;0.80;99.90;;;-0.08;100.00;101960.09;5007420;28;19930;-77
2022/01/27 03:22:06;;;;;;;;;;;0.90;99.90;;;-0.04;100.00;101961.09;4994314;28;20033;-76
2022/01/27 03:24:34;;;;;;;;;;;0.90;99.90;;;-0.07;100.00;101956.69;5009401;28;20012;-76
2022/01/27 03:27:02;;;;;;;;;;;0.90;99.90;;;-0.18;100.00;101940.66;5026798;28;19933;-76
2022/01/27 03:29:29;;;;;;;;;;;0.80;99.90;;;-0.13;100.00;101938.28;5010270;28;19930;-76
2022/01/27 03:31:56;;;;;;;;;;;0.80;99.90;;;-0.08;100.00;101947.16;5009958;28;19956;-76
2022/01/27 03:34:23;;;;;;;;;;;1.00;99.90;;;-0.15;100.00;101943.41;5009278;28;19951;-76
2022/01/27 03:36:51;;;;;;;;;;;0.90;99.90;;;-0.12;100.00;101934.88;5026816;28;19932;-76
2022/01/27 03:39:21;;;;;;;;;;;0.80;99.90;;;-0.17;100.00;101942.41;5026611;28;19937;-76
2022/01/27 03:41:53;;;;;;;;;;;0.70;99.90;;;-0.17;100.00;101944.13;5009972;28;19930;-77
2022/01/27 03:44:21;;;;;;;;;;;3.50;99.90;;;-0.17;100.00;101946.72;5009192;28;19987;-77
2022/01/27 03:46:49;;;;;;;;;;;1.80;99.90;;;-0.17;100.00;101950.19;4993922;28;20609;-77
2022/01/27 03:49:16;;;;;;;;;;;0.60;99.90;;;-0.12;100.00;101941.75;5010048;28;20045;-77
2022/01/27 03:51:45;;;;;;;;;;;3.50;99.90;;;-0.14;100.00;101941.69;5009833;28;19929;-78
2022/01/27 03:54:13;;;;;;;;;;;0.70;99.90;;;-0.09;100.00;101937.59;4992427;28;19929;-77
2022/01/27 03:56:40;;;;;;;;;;;3.40;99.90;;;-0.13;100.00;101946.03;5010985;28;19983;-77
2022/01/27 03:59:07;;;;;;;;;;;0.80;99.90;;;-0.22;100.00;101946.50;5011124;28;19930;-77
2022/01/27 04:01:34;;;;;;;;;;;1.00;99.90;;;-0.19;100.00;101938.88;5009597;28;20049;-76
2022/01/27 04:04:02;;;;;;;;;;;0.70;99.90;;;-0.15;100.00;101939.91;5008578;28;19956;-76
2022/01/27 04:06:34;;;;;;;;;;;0.70;99.90;;;-0.17;100.00;101938.97;4993283;28;19937;-76
2022/01/27 04:09:03;;;;;;;;;;;0.80;99.90;;;-0.23;100.00;101929.22;5010677;28;19965;-77
2022/01/27 04:11:30;;;;;;;;;;;0.60;99.90;;;-0.21;100.00;101934.47;5009427;28;19926;-76
2022/01/27 04:13:58;;;;;;;;;;;0.70;99.90;;;-0.25;100.00;101935.13;5009672;28;20675;-77
2022/01/27 04:16:25;;;;;;;;;;;0.80;99.90;;;-0.20;100.00;101942.28;5010601;28;19934;-76
2022/01/27 04:18:52;;;;;;;;;;;0.70;99.90;;;-0.19;100.00;101935.41;5025834;28;19976;-76
2022/01/27 04:21:19;;;;;;;;;;;0.80;99.90;;;-0.25;100.00;101933.44;5009169;28;19926;-77
2022/01/27 04:23:46;;;;;;;;;;;0.50;99.90;;;-0.22;100.00;101930.09;4991725;28;19932;-77
2022/01/27 04:26:16;;;;;;;;;;;0.60;99.90;;;-0.27;100.00;101929.00;5009117;28;20012;-76
2022/01/27 04:28:45;;;;;;;;;;;0.90;99.90;;;-0.24;100.00;101916.19;5009104;28;19936;-76
2022/01/27 04:31:12;;;;;;;;;;;0.60;99.90;;;-0.24;100.00;101917.09;5008437;28;19933;-77
2022/01/27 04:33:41;;;;;;;;;;;0.90;99.90;;;-0.21;100.00;101917.22;5007863;28;19929;-77
2022/01/27 04:36:19;;;;;;;;;;;0.80;99.90;;;-0.26;100.00;101910.97;5009102;28;19930;-77
2022/01/27 04:38:54;;;;;;;;;;;0.80;99.90;;;-0.32;100.00;101915.84;5009212;28;20539;-76
2022/01/27 04:41:34;;;;;;;;;;;0.80;99.90;;;-0.29;100.00;101910.84;5008934;28;19933;-76
2022/01/27 04:44:18;;;;;;;;;;;0.70;99.90;;;-0.30;100.00;101901.31;5009089;28;19929;-76
2022/01/27 04:47:11;;;;;;;;;;;0.60;99.90;;;-0.24;100.00;101903.25;5009136;28;19933;-77
2022/01/27 04:49:35;;;;;;;;;;;0.50;99.90;;;-0.29;100.00;101900.50;5008561;28;19956;-76
2022/01/27 04:52:03;;;;;;;;;;;0.40;99.90;;;-0.26;100.00;101903.22;5008966;28;20684;-77
2022/01/27 04:54:47;;;;;;;;;;;0.60;99.90;;;-0.34;100.00;101901.97;5008938;28;20024;-76
2022/01/27 04:57:13;;;;;;;;;;;1.40;99.90;;;-0.27;100.00;101931.59;5010034;28;19933;-77
2022/01/27 04:59:44;;;;;;;;;;;0.70;99.90;;;-0.33;100.00;101933.09;5009979;28;20387;-77
2022/01/27 05:02:20;;;;;;;;;;;2.20;99.90;;;-0.31;100.00;101938.34;4990374;28;20656;-76
2022/01/27 05:04:50;;;;;;;;;;;0.50;99.90;;;-0.30;100.00;101924.59;5008430;28;20382;-76
2022/01/27 05:07:38;;;;;;;;;;;0.60;99.90;;;-0.37;100.00;101915.66;5008993;28;20055;-77
2022/01/27 05:10:13;;;;;;;;;;;0.70;99.90;;;-0.33;100.00;101921.84;5008672;28;19987;-76
2022/01/27 05:12:47;;;;;;;;;;;0.60;99.90;;;-0.29;100.00;101923.78;4992351;28;19980;-76
2022/01/27 05:15:13;;;;;;;;;;;1.50;99.90;;;-0.31;100.00;101930.56;5009552;28;20028;-76
2022/01/27 05:17:40;;;;;;;;;;;0.40;99.90;;;-0.33;100.00;101922.75;5008260;28;19925;-76
2022/01/27 05:20:08;;;;;;;;;;;0.60;99.90;;;-0.26;100.00;101928.19;5010489;28;19930;-78
2022/01/27 05:22:35;;;;;;;;;;;0.70;99.90;;;-0.29;100.00;101942.75;5007950;28;20395;-77
2022/01/27 05:25:05;;;;;;;;;;;0.90;99.90;;;-0.27;100.00;101942.84;5009248;28;19929;-80
2022/01/27 05:27:32;;;;;;;;;;;0.60;99.90;;;-0.31;100.00;101943.50;5041995;28;20294;-76
2022/01/27 05:30:01;;;;;;;;;;;0.70;99.90;;;-0.29;100.00;101947.06;5009249;28;19988;-76
2022/01/27 05:32:28;;;;;;;;;;;1.90;99.90;;;-0.32;100.00;101946.88;5008622;28;20283;-75
2022/01/27 05:34:55;;;;;;;;;;;0.90;99.90;;;-0.27;100.00;101950.59;5006481;28;19952;-78
2022/01/27 05:37:22;;;;;;;;;;;1.20;99.90;;;-0.35;100.00;101947.66;5024350;28;19937;-76
2022/01/27 05:39:49;;;;;;;;;;;1.60;99.90;;;-0.26;100.00;101946.28;5007374;28;19964;-76
2022/01/27 05:42:19;;;;;;;;;;;0.60;99.90;;;-0.25;100.00;101942.88;5040511;28;19955;-76
2022/01/27 05:44:46;;;;;;;;;;;0.60;99.90;;;-0.27;100.00;101944.50;5012374;28;19926;-77
2022/01/27 05:47:13;;;;;;;;;;;0.70;99.90;;;-0.32;100.00;101952.97;4991573;28;19936;-76
2022/01/27 05:49:40;;;;;;;;;;;0.60;99.90;;;-0.26;100.00;101942.00;5008451;28;19933;-76
2022/01/27 05:52:09;;;;;;;;;;;1.90;99.90;;;-0.30;100.00;101937.53;5007633;28;19964;-76
2022/01/27 05:54:36;;;;;;;;;;;3.80;99.90;;;-0.32;100.00;101941.72;5006634;28;19925;-77
2022/01/27 05:57:03;;;;;;;;;;;1.60;99.90;;;-0.29;100.00;101940.16;5007199;28;19960;-76
2022/01/27 05:59:30;;;;;;;;;;;0.80;99.90;;;-0.19;100.00;101933.69;5005518;28;20498;-76
2022/01/27 06:01:57;;;;;;;;;;;0.90;99.90;;;-0.28;100.00;101928.13;5008574;28;19936;-76
2022/01/27 06:04:27;;;;;;;;;;;0.90;99.90;;;-0.25;100.00;101929.94;5007148;28;20398;-77
2022/01/27 06:06:57;;;;;;;;;;;0.70;99.90;;;-0.27;100.00;101931.59;5010441;28;20000;-77
2022/01/27 06:09:24;;;;;;;;;;;0.60;99.90;;;-0.23;100.00;101926.63;5006770;28;19936;-76
2022/01/27 06:11:51;;;;;;;;;;;0.60;99.90;;;-0.26;100.00;101918.72;5008095;28;20283;-76
2022/01/27 06:14:18;;;;;;;;;;;2.90;99.90;;;-0.22;100.00;101923.22;5006585;28;20383;-76
2022/01/27 06:16:45;;;;;;;;;;;0.70;99.90;;;-0.24;100.00;101936.88;5008135;28;19934;-76
2022/01/27 06:19:13;;;;;;;;;;;0.70;99.90;;;-0.22;100.00;101930.97;5007729;28;19926;-77
2022/01/27 06:21:42;;;;;;;;;;;-0.50;99.90;;;-0.28;100.00;101915.19;5007264;28;19937;-76
2022/01/27 06:24:13;;;;;;;;;;;2.00;99.90;;;-0.30;100.00;101927.19;5008668;28;19941;-76
2022/01/27 06:26:40;;;;;;;;;;;0.90;99.90;;;-0.27;100.00;101924.72;4991490;28;20314;-76
2022/01/27 06:29:07;;;;;;;;;;;2.30;99.90;;;-0.27;100.00;101923.81;5007224;28;19929;-76
2022/01/27 06:31:34;;;;;;;;;;;0.50;99.90;;;-0.34;100.00;101925.25;5006586;28;19935;-76
2022/01/27 06:34:01;;;;;;;;;;;0.60;99.90;;;-0.37;100.00;101932.88;4989936;28;19936;-76
2022/01/27 06:36:28;;;;;;;;;;;0.60;99.90;;;-0.35;100.00;101942.47;5008545;28;20440;-76
2022/01/27 06:38:54;;;;;;;;;;;0.30;99.90;;;-0.32;100.00;101950.38;5008275;28;19925;-76
2022/01/27 06:41:21;;;;;;;;;;;0.60;99.90;;;-0.27;100.00;101944.50;5008627;28;19925;-76
2022/01/27 06:43:48;;;;;;;;;;;0.60;99.90;;;-0.32;100.00;101944.28;4990096;28;20308;-75
2022/01/27 06:46:15;;;;;;;;;;;0.50;99.90;;;-0.24;100.00;101937.78;5007140;28;19925;-76
2022/01/27 06:48:42;;;;;;;;;;;0.80;99.90;;;-0.21;100.00;101937.06;5008141;28;19933;-76
2022/01/27 06:51:09;;;;;;;;;;;2.00;99.90;;;-0.23;100.00;101939.56;5007077;28;19926;-76
2022/01/27 06:53:36;;;;;;;;;;;2.40;99.90;;;-0.18;100.00;101944.94;5007248;28;19975;-76
2022/01/27 06:56:03;;;;;;;;;;;0.50;99.90;;;-0.31;100.00;101935.75;5011039;28;20400;-76
2022/01/27 06:58:34;;;;;;;;;;;1.00;99.90;;;-0.27;100.00;101939.34;5010821;28;19929;-76
2022/01/27 07:01:01;;;;;;;;;;;0.60;99.90;;;-0.22;100.00;101945.63;5010607;28;19930;-76
2022/01/27 07:03:33;;;;;;;;;;;0.60;99.90;;;-0.22;100.00;101938.75;5010859;28;19964;-76
2022/01/27 07:06:00;;;;;;;;;;;0.90;99.90;;;-0.30;100.00;101934.94;5012304;28;19929;-76
2022/01/27 07:08:36;;;;;;;;;;;2.50;99.90;;;-0.32;100.00;101940.03;4995772;28;20314;-76
2022/01/27 07:11:03;;;;;;;;;;;0.70;99.90;;;-0.32;100.00;101950.38;5011913;28;20409;-75
2022/01/27 07:13:30;;;;;;;;;;;0.70;99.90;;;-0.30;100.00;101953.03;5009145;28;19933;-76
2022/01/27 07:15:57;;;;;;;;;;;0.70;99.90;;;-0.36;100.00;101951.06;5012415;28;19930;-76
2022/01/27 07:18:24;;;;;;;;;;;1.80;99.90;;;-0.36;100.00;101953.63;5010514;28;19936;-75
2022/01/27 07:20:51;;;;;;;;;;;2.20;99.90;;;-0.35;100.00;101958.00;5010392;28;19926;-75
2022/01/27 07:23:19;;;;;;;;;;;0.40;99.90;;;-0.32;100.00;101944.28;5009232;28;19929;-76
2022/01/27 07:25:46;;;;;;;;;;;1.60;99.90;;;-0.38;100.00;101942.34;4994274;28;19930;-75
2022/01/27 07:28:13;;;;;;;;;;;0.60;99.90;;;-0.41;100.00;101937.00;5010269;28;20337;-75
2022/01/27 07:30:40;;;;;;;;;;;2.80;99.90;;;-0.39;100.00;101944.84;4993803;28;19948;-75
2022/01/27 07:33:07;;;;;;;;;;;0.50;99.90;;;-0.38;100.00;101944.03;5025568;28;19929;-75
2022/01/27 07:35:34;;;;;;;;;;;0.80;99.90;;;-0.39;100.00;101939.66;5009966;28;20361;-75
2022/01/27 07:38:01;;;;;;;;;;;0.40;99.90;;;-0.41;100.00;101937.00;5008598;28;19929;-75
2022/01/27 07:40:29;;;;;;;;;;;0.60;99.90;;;-0.40;100.00;101936.19;5009612;28;20588;-75
2022/01/27 07:43:13;;;;;;;;;;;0.40;99.90;;;-0.38;100.00;101932.00;5009477;28;20681;-75
2022/01/27 07:45:40;;;;;;;;;;;0.60;99.90;;;-0.47;100.00;101934.13;5016137;28;20028;-74
2022/01/27 07:48:07;;;;;;;;;;;1.90;99.90;;;-0.43;100.00;101929.19;4993086;28;19944;-74
2022/01/27 07:50:34;;;;;;;;;;;0.50;99.90;;;-0.43;100.00;101934.38;5009604;28;19936;-74
2022/01/27 07:53:01;;;;;;;;;;;0.40;99.90;;;-0.44;100.00;101926.53;5010048;28;19937;-75
2022/01/27 07:55:28;;;;;;;;;;;1.20;99.90;;;-0.38;100.00;101924.25;5009458;28;19929;-75
2022/01/27 07:57:55;;;;;;;;;;;0.50;99.90;;;-0.41;100.00;101920.63;5011158;28;19929;-75
2022/01/27 08:00:22;;;;;;;;;;;2.70;99.90;;;-0.41;100.00;101926.66;5009524;28;20306;-74
2022/01/27 08:02:49;;;;;;;;;;;0.40;99.90;;;-0.42;100.00;101914.53;5006842;28;19937;-75
2022/01/27 08:05:16;;;;;;;;;;;0.70;99.90;;;-0.52;100.00;101920.13;5009437;28;19936;-75
2022/01/27 08:07:43;;;;;;;;;;;0.50;99.90;;;-0.60;100.00;101910.28;5009267;28;19929;-74
2022/01/27 08:10:10;;;;;;;;;;;3.00;99.90;;;-0.51;100.00;101915.00;5010539;28;19925;-75
2022/01/27 08:12:42;;;;;;;;;;;0.40;99.90;;;-0.59;100.00;101922.41;5008118;28;20017;-75
2022/01/27 08:15:11;;;;;;;;;;;0.40;99.90;;;-0.64;100.00;101912.66;5009114;28;19929;-75
2022/01/27 08:17:38;;;;;;;;;;;0.40;99.90;;;-0.57;100.00;101892.31;5009057;28;20335;-76
2022/01/27 08:20:06;;;;;;;;;;;1.20;99.90;;;-0.61;100.00;101895.59;5008876;28;19932;-75
2022/01/27 08:22:38;;;;;;;;;;;0.30;99.90;;;-0.57;100.00;101887.16;5010011;28;19952;-75
2022/01/27 08:25:05;;;;;;;;;;;0.40;99.90;;;-0.60;100.00;101883.56;5012094;28;19933;-74
2022/01/27 08:27:33;;;;;;;;;;;0.40;99.90;;;-0.68;100.00;101895.25;5017117;28;20320;-75
2022/01/27 08:30:04;;;;;;;;;;;0.50;99.90;;;-0.63;100.00;101893.75;5009787;28;20389;-74
2022/01/27 08:35:20;;;;;;;;;;;0.50;99.90;;;-0.54;100.00;101889.00;5009382;28;20587;-75
2022/01/27 08:37:47;;;;;;;;;;;0.30;99.90;;;-0.58;100.00;101872.47;5008581;28;19930;-75
2022/01/27 08:40:16;;;;;;;;;;;0.40;99.90;;;-0.61;100.00;101882.66;5025463;28;20441;-75
2022/01/27 08:43:04;;;;;;;;;;;2.00;99.90;;;-0.60;100.00;101879.25;5008322;28;19993;-75
2022/01/27 08:45:31;;;;;;;;;;;1.50;99.90;;;-0.60;100.00;101874.09;5009178;28;20394;-75
2022/01/27 08:47:59;;;;;;;;;;;0.50;99.90;;;-0.60;100.00;101874.09;5008438;28;20426;-74
2022/01/27 08:50:27;;;;;;;;;;;0.40;99.90;;;-0.55;100.00;101863.97;5007189;28;19952;-75
2022/01/27 08:52:54;;;;;;;;;;;0.40;99.90;;;-0.55;100.00;101869.16;5007876;28;20398;-74
2022/01/27 08:55:21;;;;;;;;;;;0.30;99.90;;;-0.49;100.00;101881.47;5008485;28;19937;-75
2022/01/27 08:57:50;;;;;;;;;;;0.20;99.90;;;-0.49;100.00;101874.59;5008401;28;19929;-75
2022/01/27 09:00:19;;;;;;;;;;;1.80;99.90;;;-0.43;100.00;101876.56;5009559;28;20402;-75
2022/01/27 09:03:06;;;;;;;;;;;0.50;99.90;;;-0.38;100.00;101864.75;5008856;28;19934;-75
2022/01/27 09:05:33;;;;;;;;;;;0.40;99.90;;;0.08;100.00;101867.56;5008919;28;19929;-76
2022/01/27 09:08:01;;;;;;;;;;;2.00;99.90;;;0.04;100.00;101870.84;5010411;28;20458;-76
2022/01/27 09:10:31;;;;;;;;;;;0.70;99.90;;;0.06;100.00;101872.69;4995270;28;19930;-77
2022/01/27 09:13:02;;;;;;;;;;;2.70;99.90;;;0.06;100.00;101861.44;5009598;28;20287;-76
2022/01/27 09:15:30;;;;;;;;;;;0.90;99.90;;;0.01;100.00;101870.72;5008391;28;20287;-76
2022/01/27 09:17:58;;;;;;;;;;;0.90;99.90;;;0.00;100.00;101872.44;5009194;28;19929;-75
2022/01/27 09:20:26;;;;;;;;;;;0.90;99.90;;;-0.09;100.00;101878.06;5024124;28;19961;-74
2022/01/27 09:22:56;;;;;;;;;;;0.90;99.90;;;-0.11;100.00;101874.53;5008382;28;19929;-75
2022/01/27 09:25:30;;;;;;;;;;;2.50;99.90;;;-0.14;100.00;101869.22;5008952;28;19935;-75
2022/01/27 09:27:58;;;;;;;;;;;1.80;99.90;;;-0.13;100.00;101878.75;5008040;28;20615;-75
2022/01/27 09:30:26;;;;;;;;;;;0.70;99.90;;;-0.09;100.00;101872.03;5008602;28;19929;-75
2022/01/27 09:32:53;;;;;;;;;;;2.50;99.90;;;-0.10;100.00;101876.31;4975133;28;20302;-75
2022/01/27 09:35:20;;;;;;;;;;;2.20;99.90;;;-0.07;100.00;101891.09;5007776;28;19948;-76
2022/01/27 09:37:47;;;;;;;;;;;0.80;99.90;;;-0.12;100.00;101880.53;5008965;28;20019;-77
2022/01/27 09:40:16;;;;;;;;;;;1.80;99.90;;;-0.10;100.00;101863.38;5008954;28;19980;-76
2022/01/27 09:42:49;;;;;;;;;;;2.40;99.90;;;-0.06;100.00;101875.66;5009095;28;19930;-75
2022/01/27 09:45:16;;;;;;;;;;;0.80;99.90;;;-0.08;100.00;101868.63;5011174;28;19929;-76
2022/01/27 09:47:52;;;;;;;;;;;3.20;99.90;;;-0.13;100.00;101872.72;5011591;28;19995;-78
2022/01/27 09:50:27;;;;;;;;;;;3.00;99.90;;;-0.12;100.00;101879.66;4997226;28;19925;-76
2022/01/27 09:52:54;;;;;;;;;;;0.90;99.90;;;-0.07;100.00;101872.97;5010710;28;19929;-75
2022/01/27 09:55:22;;;;;;;;;;;0.60;99.90;;;-0.07;100.00;101879.06;5008406;28;20028;-78
2022/01/27 09:57:53;;;;;;;;;;;0.70;99.90;;;-0.05;100.00;101882.59;5024503;28;20438;-75
2022/01/27 10:00:21;;;;;;;;;;;1.80;99.90;;;0.06;100.00;101879.56;5008572;28;19932;-75
2022/01/27 10:03:04;;;;;;;;;;;0.80;99.90;;;-0.03;100.00;101885.22;4992328;28;19936;-77
2022/01/27 10:05:32;;;;;;;;;;;1.10;99.90;;;0.04;100.00;101879.50;5009280;28;19933;-78
2022/01/27 10:08:10;;;;;;;;;;;1.80;99.90;;;0.03;100.00;101882.03;4992525;28;19975;-76
2022/01/27 10:10:46;;;;;;;;;;;0.90;99.90;;;0.05;100.00;101882.97;5008461;28;19936;-78
2022/01/27 10:13:40;;;;;;;;;;;1.10;99.90;;;0.11;100.00;101878.94;5010216;28;20036;-76
2022/01/27 10:16:07;;;;;;;;;;;1.10;99.90;;;0.17;100.00;101875.75;5025854;28;20406;-75
2022/01/27 10:18:44;;;;;;;;;;;1.10;99.90;;;0.08;100.00;101878.81;5024552;28;20345;-74
2022/01/27 10:21:13;;;;;;;;;;;1.10;99.90;;;0.09;100.00;101872.81;5008725;28;19943;-76
2022/01/27 10:23:41;;;;;;;;;;;1.00;99.90;;;0.18;100.00;101872.34;5007408;28;20008;-74
2022/01/27 10:26:19;;;;;;;;;;;1.00;99.90;;;0.08;100.00;101872.75;5007716;28;19935;-79
2022/01/27 10:28:59;;;;;;;;;;;1.10;99.90;;;0.17;100.00;101859.34;5024191;28;20009;-77
2022/01/27 10:31:28;;;;;;;;;;;2.20;99.90;;;0.23;100.00;101869.94;5011709;28;19941;-78
2022/01/27 10:34:03;;;;;;;;;;;0.90;99.90;;;0.23;100.00;101852.69;5048562;28;19925;-76
2022/01/27 10:36:32;;;;;;;;;;;1.10;99.90;;;0.22;100.00;101850.06;5021103;28;19933;-78
2022/01/27 10:39:08;;;;;;;;;;;1.30;99.90;;;0.24;100.00;101845.81;5012242;28;19932;-75
2022/01/27 10:41:53;;;;;;;;;;;1.20;99.90;;;0.24;100.00;101845.81;4995972;28;19925;-75
2022/01/27 10:44:20;;;;;;;;;;;1.40;99.90;;;0.26;100.00;101845.09;5011801;28;19965;-78
2022/01/27 10:47:02;;;;;;;;;;;1.90;99.90;;;0.29;100.00;101836.53;5013102;28;20348;-74
2022/01/27 10:49:36;;;;;;;;;;;0.90;99.90;;;0.28;100.00;101837.34;5011314;28;20004;-75
2022/01/27 10:52:03;;;;;;;;;;;1.30;99.90;;;0.27;100.00;101840.78;4995363;28;19940;-77
2022/01/27 10:54:39;;;;;;;;;;;1.00;99.90;;;0.25;100.00;101832.06;5010498;28;19933;-77
2022/01/27 10:57:12;;;;;;;;;;;1.20;99.90;;;0.28;100.00;101827.91;5005451;28;20025;-78
2022/01/27 10:59:42;;;;;;;;;;;0.90;99.90;;;0.30;100.00;101816.72;5023334;28;19925;-75
2022/01/27 11:02:11;;;;;;;;;;;1.10;99.90;;;0.36;100.00;101820.44;5007586;28;19936;-76
2022/01/27 11:04:43;;;;;;;;;;;2.20;99.90;;;0.35;100.00;101826.47;5023484;28;19934;-77
2022/01/27 11:07:13;;;;;;;;;;;2.80;99.90;;;0.27;100.00;101831.31;5024195;28;19965;-75
2022/01/27 11:09:43;;;;;;;;;;;1.40;99.90;;;0.27;100.00;101820.06;5018579;28;19929;-76
2022/01/27 11:12:18;;;;;;;;;;;2.30;99.90;;;0.26;100.00;101821.78;5000096;28;19930;-77
2022/01/27 11:14:50;;;;;;;;;;;0.90;99.90;;;0.25;100.00;101806.16;5022790;28;19930;-76
2022/01/27 11:17:20;;;;;;;;;;;1.80;99.90;;;0.33;100.00;101799.63;5007224;28;19936;-78
2022/01/27 11:25:08;;;;;;;;;;;1.30;99.90;;;0.44;100.00;101792.28;5022405;28;20402;-76
2022/01/27 11:27:37;;;;;;;;;;;2.70;99.90;;;0.43;100.00;101787.94;5018800;28;19929;-76
2022/01/27 11:30:19;;;;;;;;;;;1.30;99.90;;;0.52;100.00;101785.69;4992419;28;19930;-76
2022/01/27 11:33:01;;;;;;;;;;;1.40;99.90;;;0.59;100.00;101791.13;5005469;28;19929;-76
2022/01/27 11:36:04;;;;;;;;;;;1.40;99.90;;;0.73;100.00;101789.97;4991401;28;19952;-76
2022/01/27 11:38:31;;;;;;;;;;;1.60;99.90;;;0.64;100.00;101789.59;5019809;28;19930;-77
2022/01/27 11:40:57;;;;;;;;;;;1.40;99.90;;;0.56;100.00;101791.88;4993628;28;19930;-79
2022/01/27 11:43:33;;;;;;;;;;;1.60;99.90;;;0.54;100.00;101780.59;4993006;28;19925;-77
2022/01/27 11:46:15;;;;;;;;;;;1.60;99.90;;;0.63;100.00;101778.38;5008150;28;19929;-77
2022/01/27 11:48:42;;;;;;;;;;;1.50;99.90;;;0.60;100.00;101775.63;5025603;28;19977;-76
2022/01/27 11:51:14;;;;;;;;;;;1.40;99.90;;;0.53;100.00;101784.00;5008865;28;20337;-78
2022/01/27 11:53:48;;;;;;;;;;;0.80;99.90;;;0.58;100.00;101773.81;5013221;28;20298;-78
2022/01/27 11:56:27;;;;;;;;;;;1.40;99.90;;;0.66;100.00;101767.22;5014720;28;20000;-78
2022/01/27 11:59:11;;;;;;;;;;;1.40;99.90;;;0.70;100.00;101777.78;5014076;28;19925;-78
2022/01/27 12:01:38;;;;;;;;;;;1.40;99.90;;;0.64;100.00;101777.53;5012075;28;19938;-77
2022/01/27 12:04:06;;;;;;;;;;;1.50;99.90;;;0.63;100.00;101777.47;5028443;28;19984;-77
2022/01/27 12:06:39;;;;;;;;;;;2.60;99.90;;;0.66;100.00;101785.34;5044154;28;19940;-74
2022/01/27 12:09:19;;;;;;;;;;;1.50;99.90;;;0.75;100.00;101769.28;5028935;28;20032;-78
2022/01/27 12:11:55;;;;;;;;;;;1.60;99.90;;;0.77;100.00;101773.72;5020726;28;19949;-78